Time,TemperatureF,DewpointF,PressureIn,WindDirection,WindDirectionDegrees,WindSpeedMPH,WindSpeedGustMPH,Humidity,HourlyPrecipIn,Conditions,Clouds,dailyrainin,SolarRadiationWatts/m^2,SoftwareType,DateUTC
2013-02-11 00:02:00,43.8,35.0,30.11,WSW,243,0.0,2.0,71,0.00,,,0.00,0,Wunderground v.1.15,2013-02-11 08:02:00,
2013-02-11 00:12:00,43.4,35.0,30.12,SSE,168,2.0,2.0,72,0.00,,,0.00,0,Wunderground v.1.15,2013-02-11 08:12:00,
2013-02-11 00:22:00,43.7,35.3,30.12,SSE,167,2.0,2.0,72,0.00,,,0.00,0,Wunderground v.1.15,2013-02-11 08:22:00,
2013-02-11 00:32:00,43.7,34.9,30.12,SSE,167,2.0,2.0,71,0.00,,,0.00,0,Wunderground v.1.15,2013-02-11 08:32:00,
2013-02-11 00:42:00,43.8,35.0,30.12,SSE,168,1.0,1.0,71,0.00,,,0.00,0,Wunderground v.1.15,2013-02-11 08:42:00,
2013-02-11 00:52:00,43.6,34.5,30.12,SSE,167,0.0,0.0,70,0.00,,,0.00,0,Wunderground v.1.15,2013-02-11 08:52:00,
2013-02-11 01:02:00,43.4,34.3,30.12,SSE,165,1.0,2.0,70,0.00,,,0.00,0,Wunderground v.1.15,2013-02-11 09:02:00,
2013-02-11 01:12:00,42.8,34.0,30.12,SSE,165,1.0,2.0,71,0.00,,,0.00,0,Wunderground v.1.15,2013-02-11 09:12:00,
2013-02-11 01:22:00,42.3,33.9,30.13,South,173,3.0,3.0,72,0.00,,,0.00,0,Wunderground v.1.15,2013-02-11 09:22:00,
2013-02-11 01:32:00,42.1,33.7,30.13,South,175,2.0,2.0,72,0.00,,,0.00,0,Wunderground v.1.15,2013-02-11 09:32:00,
2013-02-11 01:42:00,42.0,33.6,30.13,NW,315,0.0,0.0,72,0.00,,,0.00,0,Wunderground v.1.15,2013-02-11 09:42:00,
2013-02-11 01:52:00,41.8,33.4,30.13,NW,315,1.0,1.0,72,0.00,,,0.00,0,Wunderground v.1.15,2013-02-11 09:52:00,
2013-02-11 02:02:00,41.8,33.4,30.13,NW,315,0.0,0.0,72,0.00,,,0.00,0,Wunderground v.1.15,2013-02-11 10:02:00,
2013-02-11 02:12:00,42.0,33.3,30.13,NW,315,0.0,0.0,71,0.00,,,0.00,0,Wunderground v.1.15,2013-02-11 10:12:00,
2013-02-11 02:22:00,42.0,33.3,30.13,NW,315,0.0,0.0,71,0.00,,,0.00,0,Wunderground v.1.15,2013-02-11 10:22:00,
2013-02-11 02:32:00,41.9,33.2,30.14,South,188,1.0,2.0,71,0.00,,,0.00,0,Wunderground v.1.15,2013-02-11 10:32:00,
2013-02-11 02:42:00,42.0,32.9,30.14,South,188,2.0,2.0,70,0.00,,,0.00,0,Wunderground v.1.15,2013-02-11 10:42:00,
2013-02-11 02:52:00,41.6,32.9,30.14,SSE,150,1.0,1.0,71,0.00,,,0.00,0,Wunderground v.1.15,2013-02-11 10:52:00,
2013-02-11 03:02:00,41.1,32.4,30.13,SSE,163,2.0,3.0,71,0.00,,,0.00,0,Wunderground v.1.15,2013-02-11 11:02:00,
2013-02-11 03:12:00,41.1,32.4,30.13,SSE,148,7.0,11.0,71,0.00,,,0.00,0,Wunderground v.1.15,2013-02-11 11:12:00,
2013-02-11 03:22:00,41.1,31.7,30.13,SSE,149,7.0,7.0,69,0.00,,,0.00,0,Wunderground v.1.15,2013-02-11 11:22:00,
2013-02-11 03:32:00,43.2,31.1,30.13,SE,146,4.0,4.0,62,0.00,,,0.00,0,Wunderground v.1.15,2013-02-11 11:32:00,
2013-02-11 03:42:00,43.4,31.6,30.13,WSW,257,2.0,2.0,63,0.00,,,0.00,0,Wunderground v.1.15,2013-02-11 11:42:00,
2013-02-11 03:52:00,42.9,30.4,30.13,WSW,256,0.0,0.0,61,0.00,,,0.00,0,Wunderground v.1.15,2013-02-11 11:52:00,
2013-02-11 04:02:00,42.7,28.9,30.13,WSW,256,0.0,0.0,58,0.00,,,0.00,0,Wunderground v.1.15,2013-02-11 12:02:00,
2013-02-11 04:12:00,43.7,29.0,30.14,WSW,257,1.0,1.0,56,0.00,,,0.00,0,Wunderground v.1.15,2013-02-11 12:12:00,
2013-02-11 04:22:00,44.2,28.6,30.14,WSW,257,0.0,0.0,54,0.00,,,0.00,0,Wunderground v.1.15,2013-02-11 12:22:00,
2013-02-11 04:32:00,44.1,30.3,30.14,WSW,256,0.0,0.0,58,0.00,,,0.00,0,Wunderground v.1.15,2013-02-11 12:32:00,
2013-02-11 04:42:00,43.7,29.0,30.15,WSW,256,0.0,0.0,56,0.00,,,0.00,0,Wunderground v.1.15,2013-02-11 12:42:00,
2013-02-11 04:52:00,43.7,28.1,30.15,WSW,256,0.0,0.0,54,0.00,,,0.00,0,Wunderground v.1.15,2013-02-11 12:52:00,
2013-02-11 05:02:00,43.9,28.3,30.15,WSW,256,0.0,0.0,54,0.00,,,0.00,0,Wunderground v.1.15,2013-02-11 13:02:00,
2013-02-11 05:12:00,44.1,28.0,30.16,WSW,256,0.0,0.0,53,0.00,,,0.00,0,Wunderground v.1.15,2013-02-11 13:12:00,
2013-02-11 05:22:00,44.4,28.3,30.16,WSW,256,0.0,0.0,53,0.00,,,0.00,0,Wunderground v.1.15,2013-02-11 13:22:00,
2013-02-11 05:32:00,44.7,27.7,30.16,WSW,256,1.0,2.0,51,0.00,,,0.00,0,Wunderground v.1.15,2013-02-11 13:32:00,
2013-02-11 05:42:00,45.0,27.9,30.16,WSW,256,1.0,1.0,51,0.00,,,0.00,0,Wunderground v.1.15,2013-02-11 13:42:00,
2013-02-11 05:52:00,44.9,28.8,30.17,WSW,256,0.0,0.0,53,0.00,,,0.00,0,Wunderground v.1.15,2013-02-11 13:52:00,
2013-02-11 06:02:00,44.1,28.5,30.17,SW,236,0.0,0.0,54,0.00,,,0.00,0,Wunderground v.1.15,2013-02-11 14:02:00,
2013-02-11 06:12:00,43.7,27.2,30.17,SW,236,0.0,0.0,52,0.00,,,0.00,0,Wunderground v.1.15,2013-02-11 14:12:00,
2013-02-11 06:22:00,43.9,27.4,30.18,SW,236,0.0,0.0,52,0.00,,,0.00,0,Wunderground v.1.15,2013-02-11 14:22:00,
2013-02-11 06:32:00,44.4,27.4,30.18,WSW,255,1.0,3.0,51,0.00,,,0.00,0,Wunderground v.1.15,2013-02-11 14:32:00,
2013-02-11 06:42:00,45.0,27.5,30.18,West,271,2.0,2.0,50,0.00,,,0.00,0,Wunderground v.1.15,2013-02-11 14:42:00,
2013-02-11 06:52:00,45.2,27.6,30.19,West,274,1.0,1.0,50,0.00,,,0.00,0,Wunderground v.1.15,2013-02-11 14:52:00,
2013-02-11 07:02:00,45.1,27.6,30.19,West,269,1.0,3.0,50,0.00,,,0.00,0,Wunderground v.1.15,2013-02-11 15:02:00,
2013-02-11 07:12:00,45.4,27.8,30.19,West,264,1.0,2.0,50,0.00,,,0.00,7,Wunderground v.1.15,2013-02-11 15:12:00,
2013-02-11 07:22:00,45.2,28.1,30.20,West,264,0.0,0.0,51,0.00,,,0.00,18,Wunderground v.1.15,2013-02-11 15:22:00,
2013-02-11 07:32:00,45.0,27.5,30.20,West,263,0.0,0.0,50,0.00,,,0.00,37,Wunderground v.1.15,2013-02-11 15:32:00,
2013-02-11 07:42:00,45.1,28.0,30.21,West,264,0.0,1.0,51,0.00,,,0.00,62,Wunderground v.1.15,2013-02-11 15:42:00,
2013-02-11 07:52:00,45.5,30.3,30.21,West,264,0.0,0.0,55,0.00,,,0.00,95,Wunderground v.1.15,2013-02-11 15:52:00,
2013-02-11 08:02:00,45.0,31.1,30.21,South,175,1.0,1.0,58,0.00,,,0.00,130,Wunderground v.1.15,2013-02-11 16:02:00,
2013-02-11 08:12:00,45.1,31.6,30.22,South,175,1.0,3.0,59,0.00,,,0.00,172,Wunderground v.1.15,2013-02-11 16:12:00,
2013-02-11 08:22:00,45.6,32.1,30.22,SSE,163,1.0,1.0,59,0.00,,,0.00,216,Wunderground v.1.15,2013-02-11 16:22:00,
2013-02-11 08:32:00,46.0,32.5,30.23,SSE,163,0.0,0.0,59,0.00,,,0.00,213,Wunderground v.1.15,2013-02-11 16:32:00,
2013-02-11 08:42:00,45.2,30.4,30.23,South,173,0.0,0.0,56,0.00,,,0.00,283,Wunderground v.1.15,2013-02-11 16:42:00,
2013-02-11 08:52:00,45.3,31.0,30.23,WSW,244,1.0,3.0,57,0.00,,,0.00,313,Wunderground v.1.15,2013-02-11 16:52:00,
2013-02-11 09:02:00,46.2,30.5,30.23,WSW,250,1.0,1.0,54,0.00,,,0.00,343,Wunderground v.1.15,2013-02-11 17:02:00,
2013-02-11 09:12:00,47.5,29.8,30.23,West,260,1.0,2.0,50,0.00,,,0.00,369,Wunderground v.1.15,2013-02-11 17:12:00,
2013-02-11 09:22:00,48.9,30.1,30.24,West,278,1.0,2.0,48,0.00,,,0.00,396,Wunderground v.1.15,2013-02-11 17:22:00,
2013-02-11 09:32:00,49.6,31.2,30.24,NW,305,1.0,1.0,49,0.00,,,0.00,424,Wunderground v.1.15,2013-02-11 17:32:00,
2013-02-11 09:42:00,51.4,30.7,30.24,North,360,1.0,3.0,45,0.00,,,0.00,448,Wunderground v.1.15,2013-02-11 17:42:00,
2013-02-11 09:52:00,52.2,30.9,30.24,NW,306,2.0,4.0,44,0.00,,,0.00,473,Wunderground v.1.15,2013-02-11 17:52:00,
2013-02-11 10:02:00,52.8,31.5,30.24,NNE,18,2.0,2.0,44,0.00,,,0.00,496,Wunderground v.1.15,2013-02-11 18:02:00,
2013-02-11 10:12:00,53.8,31.2,30.24,NNE,15,4.0,8.0,42,0.00,,,0.00,517,Wunderground v.1.15,2013-02-11 18:12:00,
2013-02-11 10:22:00,54.0,29.6,30.25,NNE,17,7.0,10.0,39,0.00,,,0.00,538,Wunderground v.1.15,2013-02-11 18:22:00,
2013-02-11 10:32:00,53.9,28.8,30.25,North,350,9.0,9.0,38,0.00,,,0.00,559,Wunderground v.1.15,2013-02-11 18:32:00,
2013-02-11 10:42:00,54.5,30.0,30.25,NNE,32,7.0,8.0,39,0.00,,,0.00,575,Wunderground v.1.15,2013-02-11 18:42:00,
2013-02-11 10:52:00,55.1,29.9,30.25,North,5,6.0,11.0,38,0.00,,,0.00,594,Wunderground v.1.15,2013-02-11 18:52:00,
2013-02-11 11:02:00,55.1,30.6,30.25,NE,36,7.0,7.0,39,0.00,,,0.00,605,Wunderground v.1.15,2013-02-11 19:02:00,
2013-02-11 11:12:00,55.8,29.9,30.25,NNE,32,5.0,13.0,37,0.00,,,0.00,619,Wunderground v.1.15,2013-02-11 19:12:00,
2013-02-11 11:22:00,55.9,30.0,30.25,North,360,9.0,10.0,37,0.00,,,0.00,629,Wunderground v.1.15,2013-02-11 19:22:00,
2013-02-11 11:32:00,56.9,29.5,30.24,North,10,7.0,7.0,35,0.00,,,0.00,640,Wunderground v.1.15,2013-02-11 19:32:00,
2013-02-11 11:42:00,57.1,30.4,30.24,North,360,7.0,11.0,36,0.00,,,0.00,647,Wunderground v.1.15,2013-02-11 19:42:00,
2013-02-11 11:52:00,56.8,30.1,30.24,NNE,17,9.0,9.0,36,0.00,,,0.00,650,Wunderground v.1.15,2013-02-11 19:52:00,
2013-02-11 12:02:00,57.1,29.7,30.23,NNW,348,7.0,7.0,35,0.00,,,0.00,656,Wunderground v.1.15,2013-02-11 20:02:00,
2013-02-11 12:12:00,58.5,30.2,30.23,North,355,6.0,9.0,34,0.00,,,0.00,656,Wunderground v.1.15,2013-02-11 20:12:00,
2013-02-11 12:22:00,58.0,29.8,30.22,West,263,11.0,11.0,34,0.00,,,0.00,657,Wunderground v.1.15,2013-02-11 20:22:00,
2013-02-11 12:32:00,58.7,30.4,30.22,North,351,8.0,8.0,34,0.00,,,0.00,656,Wunderground v.1.15,2013-02-11 20:32:00,
2013-02-11 12:42:00,59.1,30.7,30.22,WNW,296,4.0,4.0,34,0.00,,,0.00,654,Wunderground v.1.15,2013-02-11 20:42:00,
2013-02-11 12:52:00,58.6,30.3,30.22,North,10,6.0,7.0,34,0.00,,,0.00,649,Wunderground v.1.15,2013-02-11 20:52:00,
2013-02-11 13:02:00,58.7,31.1,30.21,North,355,5.0,5.0,35,0.00,,,0.00,642,Wunderground v.1.15,2013-02-11 21:02:00,
2013-02-11 13:12:00,59.0,30.6,30.21,NE,42,5.0,5.0,34,0.00,,,0.00,635,Wunderground v.1.15,2013-02-11 21:12:00,
2013-02-11 13:22:00,59.4,31.0,30.21,NNE,26,3.0,3.0,34,0.00,,,0.00,624,Wunderground v.1.15,2013-02-11 21:22:00,
2013-02-11 13:32:00,59.0,29.9,30.20,East,97,3.0,6.0,33,0.00,,,0.00,612,Wunderground v.1.15,2013-02-11 21:32:00,
2013-02-11 13:42:00,60.2,30.2,30.20,North,349,4.0,6.0,32,0.00,,,0.00,601,Wunderground v.1.15,2013-02-11 21:42:00,
2013-02-11 13:52:00,60.1,29.3,30.20,North,355,5.0,5.0,31,0.00,,,0.00,585,Wunderground v.1.15,2013-02-11 21:52:00,
2013-02-11 14:02:00,60.0,30.0,30.19,North,351,5.0,5.0,32,0.00,,,0.00,570,Wunderground v.1.15,2013-02-11 22:02:00,
2013-02-11 14:12:00,60.1,29.3,30.20,NNW,336,6.0,6.0,31,0.00,,,0.00,552,Wunderground v.1.15,2013-02-11 22:12:00,
2013-02-11 14:22:00,60.8,30.7,30.19,NNE,26,3.0,3.0,32,0.00,,,0.00,531,Wunderground v.1.15,2013-02-11 22:22:00,
2013-02-11 14:32:00,60.7,30.6,30.19,NW,316,2.0,2.0,32,0.00,,,0.00,350,Wunderground v.1.15,2013-02-11 22:32:00,
2013-02-11 14:42:00,60.5,30.5,30.19,NE,35,2.0,5.0,32,0.00,,,0.00,297,Wunderground v.1.15,2013-02-11 22:42:00,
2013-02-11 14:52:00,60.3,31.0,30.19,North,5,2.0,2.0,33,0.00,,,0.00,461,Wunderground v.1.15,2013-02-11 22:52:00,
2013-02-11 15:02:00,60.7,31.4,30.19,NNE,13,2.0,2.0,33,0.00,,,0.00,424,Wunderground v.1.15,2013-02-11 23:02:00,
2013-02-11 15:12:00,60.7,31.4,30.19,NNE,24,4.0,5.0,33,0.00,,,0.00,422,Wunderground v.1.15,2013-02-11 23:12:00,
2013-02-11 15:22:00,60.7,29.9,30.19,North,351,4.0,4.0,31,0.00,,,0.00,346,Wunderground v.1.15,2013-02-11 23:22:00,
2013-02-11 15:32:00,60.6,30.6,30.19,NW,304,1.0,1.0,32,0.00,,,0.00,33,Wunderground v.1.15,2013-02-11 23:32:00,
2013-02-11 15:42:00,60.7,31.4,30.19,NW,304,0.0,3.0,33,0.00,,,0.00,32,Wunderground v.1.15,2013-02-11 23:42:00,
2013-02-11 15:52:00,60.7,30.6,30.19,NNE,32,2.0,2.0,32,0.00,,,0.00,30,Wunderground v.1.15,2013-02-11 23:52:00,
2013-02-11 16:02:00,60.6,31.3,30.19,North,11,1.0,1.0,33,0.00,,,0.00,30,Wunderground v.1.15,2013-02-12 00:02:00,
2013-02-11 16:12:00,60.4,31.1,30.19,North,11,0.0,0.0,33,0.00,,,0.00,28,Wunderground v.1.15,2013-02-12 00:12:00,
2013-02-11 16:22:00,60.3,31.0,30.19,ESE,112,2.0,2.0,33,0.00,,,0.00,28,Wunderground v.1.15,2013-02-12 00:22:00,
2013-02-11 16:32:00,60.1,30.9,30.19,East,100,1.0,2.0,33,0.00,,,0.00,26,Wunderground v.1.15,2013-02-12 00:32:00,
2013-02-11 16:42:00,60.2,30.2,30.19,NE,41,1.0,2.0,32,0.00,,,0.00,26,Wunderground v.1.15,2013-02-12 00:42:00,
2013-02-11 16:52:00,60.2,30.2,30.19,NNE,33,1.0,1.0,32,0.00,,,0.00,25,Wunderground v.1.15,2013-02-12 00:52:00,
2013-02-11 17:02:00,60.2,31.0,30.20,NNE,33,0.0,0.0,33,0.00,,,0.00,21,Wunderground v.1.15,2013-02-12 01:02:00,
2013-02-11 17:12:00,60.1,31.6,30.20,NNE,33,0.0,0.0,34,0.00,,,0.00,19,Wunderground v.1.15,2013-02-12 01:12:00,
2013-02-11 17:22:00,59.8,31.3,30.20,NNE,33,0.0,0.0,34,0.00,,,0.00,14,Wunderground v.1.15,2013-02-12 01:22:00,
2013-02-11 17:32:00,59.5,31.1,30.20,NE,34,0.0,0.0,34,0.00,,,0.00,9,Wunderground v.1.15,2013-02-12 01:32:00,
2013-02-11 17:42:00,59.0,33.4,30.20,NE,34,0.0,0.0,38,0.00,,,0.00,5,Wunderground v.1.15,2013-02-12 01:42:00,
2013-02-11 17:52:00,58.3,34.1,30.21,NE,34,0.0,0.0,40,0.00,,,0.00,0,Wunderground v.1.15,2013-02-12 01:52:00,
2013-02-11 18:02:00,57.5,34.6,30.21,NE,34,0.0,0.0,42,0.00,,,0.00,0,Wunderground v.1.15,2013-02-12 02:02:00,
2013-02-11 18:12:00,56.7,34.4,30.21,NE,34,0.0,0.0,43,0.00,,,0.00,0,Wunderground v.1.15,2013-02-12 02:12:00,
2013-02-11 18:22:00,56.0,34.4,30.22,NE,34,0.0,0.0,44,0.00,,,0.00,0,Wunderground v.1.15,2013-02-12 02:22:00,
2013-02-11 18:32:00,54.9,34.5,30.22,SE,145,2.0,7.0,46,0.00,,,0.00,0,Wunderground v.1.15,2013-02-12 02:32:00,
2013-02-11 18:42:00,54.3,33.9,30.22,SE,145,4.0,4.0,46,0.00,,,0.00,0,Wunderground v.1.15,2013-02-12 02:42:00,
2013-02-11 18:52:00,54.0,34.7,30.23,SE,145,0.0,0.0,48,0.00,,,0.00,0,Wunderground v.1.15,2013-02-12 02:52:00,
2013-02-11 19:02:00,53.7,33.9,30.23,SE,145,2.0,2.0,47,0.00,,,0.00,0,Wunderground v.1.15,2013-02-12 03:02:00,
2013-02-11 19:12:00,53.3,34.1,30.23,SE,145,1.0,2.0,48,0.00,,,0.00,0,Wunderground v.1.15,2013-02-12 03:12:00,
2013-02-11 19:22:00,52.7,34.1,30.23,SE,146,1.0,2.0,49,0.00,,,0.00,0,Wunderground v.1.15,2013-02-12 03:22:00,
2013-02-11 19:32:00,52.5,33.9,30.23,SSE,147,0.0,0.0,49,0.00,,,0.00,0,Wunderground v.1.15,2013-02-12 03:32:00,
2013-02-11 19:42:00,52.3,34.2,30.23,SSE,148,2.0,7.0,50,0.00,,,0.00,0,Wunderground v.1.15,2013-02-12 03:42:00,
2013-02-11 19:52:00,52.3,34.7,30.24,SSE,168,6.0,6.0,51,0.00,,,0.00,0,Wunderground v.1.15,2013-02-12 03:52:00,
2013-02-11 20:02:00,52.1,35.0,30.24,South,170,1.0,2.0,52,0.00,,,0.00,0,Wunderground v.1.15,2013-02-12 04:02:00,
2013-02-11 20:12:00,51.0,34.9,30.24,SSE,167,2.0,3.0,54,0.00,,,0.00,0,Wunderground v.1.15,2013-02-12 04:12:00,
2013-02-11 20:22:00,50.8,35.7,30.24,SSE,160,1.0,1.0,56,0.00,,,0.00,0,Wunderground v.1.15,2013-02-12 04:22:00,
2013-02-11 20:32:00,50.1,35.4,30.24,SSE,161,1.0,1.0,57,0.00,,,0.00,0,Wunderground v.1.15,2013-02-12 04:32:00,
2013-02-11 20:42:00,49.4,35.2,30.24,SSE,159,1.0,1.0,58,0.00,,,0.00,0,Wunderground v.1.15,2013-02-12 04:42:00,
2013-02-11 20:52:00,48.6,34.9,30.24,SSE,157,0.0,0.0,59,0.00,,,0.00,0,Wunderground v.1.15,2013-02-12 04:52:00,
2013-02-11 21:02:00,47.7,34.5,30.25,SSE,157,1.0,7.0,60,0.00,,,0.00,0,Wunderground v.1.15,2013-02-12 05:02:00,
2013-02-11 21:12:00,46.9,34.6,30.25,SSE,157,5.0,5.0,62,0.00,,,0.00,0,Wunderground v.1.15,2013-02-12 05:12:00,
2013-02-11 21:22:00,46.9,34.6,30.25,SSE,160,2.0,3.0,62,0.00,,,0.00,0,Wunderground v.1.15,2013-02-12 05:22:00,
2013-02-11 21:32:00,46.8,34.9,30.25,SSE,159,1.0,1.0,63,0.00,,,0.00,0,Wunderground v.1.15,2013-02-12 05:32:00,
2013-02-11 21:42:00,46.6,34.7,30.25,SSE,159,0.0,0.0,63,0.00,,,0.00,0,Wunderground v.1.15,2013-02-12 05:42:00,
2013-02-11 21:52:00,46.3,34.8,30.25,SSE,159,0.0,2.0,64,0.00,,,0.00,0,Wunderground v.1.15,2013-02-12 05:52:00,
2013-02-11 22:02:00,46.3,34.8,30.25,SSE,160,1.0,1.0,64,0.00,,,0.00,0,Wunderground v.1.15,2013-02-12 06:02:00,
2013-02-11 22:12:00,46.4,35.3,30.25,SSE,159,1.0,1.0,65,0.00,,,0.00,0,Wunderground v.1.15,2013-02-12 06:12:00,
2013-02-11 22:22:00,46.5,35.4,30.25,South,169,1.0,2.0,65,0.00,,,0.00,0,Wunderground v.1.15,2013-02-12 06:22:00,
2013-02-11 22:32:00,46.9,35.4,30.25,SE,137,4.0,4.0,64,0.00,,,0.00,0,Wunderground v.1.15,2013-02-12 06:32:00,
2013-02-11 22:42:00,46.7,35.2,30.25,SE,125,1.0,1.0,64,0.00,,,0.00,0,Wunderground v.1.15,2013-02-12 06:42:00,
2013-02-11 22:52:00,46.4,34.5,30.25,SE,146,1.0,1.0,63,0.00,,,0.00,0,Wunderground v.1.15,2013-02-12 06:52:00,
2013-02-11 23:02:00,46.1,34.6,30.25,SSW,193,0.0,2.0,64,0.00,,,0.00,0,Wunderground v.1.15,2013-02-12 07:02:00,
2013-02-11 23:12:00,45.9,34.0,30.25,South,184,0.0,0.0,63,0.00,,,0.00,0,Wunderground v.1.15,2013-02-12 07:12:00,
2013-02-11 23:22:00,46.2,33.9,30.26,SE,145,3.0,3.0,62,0.00,,,0.00,0,Wunderground v.1.15,2013-02-12 07:22:00,
2013-02-11 23:32:00,46.3,33.6,30.26,SE,138,2.0,2.0,61,0.00,,,0.00,0,Wunderground v.1.15,2013-02-12 07:32:00,
2013-02-11 23:42:00,45.9,33.6,30.27,SSE,152,1.0,2.0,62,0.00,,,0.00,0,Wunderground v.1.15,2013-02-12 07:42:00,
2013-02-11 23:52:00,45.7,33.4,30.27,South,178,1.0,1.0,62,0.00,,,0.00,0,Wunderground v.1.15,2013-02-12 07:52:00,